sensor_id;sensor_type;location;lat;lon;timestamp;temperature;humidity
51733;DHT22;39139;53.144;6.244;2023-04-15T00:01:22;5.70;99.90
51733;DHT22;39139;53.144;6.244;2023-04-15T00:03:53;5.40;99.90
51733;DHT22;39139;53.144;6.244;2023-04-15T00:06:19;5.70;99.90
51733;DHT22;39139;53.144;6.244;2023-04-15T00:08:46;5.60;99.90
51733;DHT22;39139;53.144;6.244;2023-04-15T00:11:12;5.90;99.90
51733;DHT22;39139;53.144;6.244;2023-04-15T00:13:38;5.30;99.90
51733;DHT22;39139;53.144;6.244;2023-04-15T00:16:05;5.60;99.90
51733;DHT22;39139;53.144;6.244;2023-04-15T00:18:32;5.60;99.90
51733;DHT22;39139;53.144;6.244;2023-04-15T00:20:58;5.90;99.90
51733;DHT22;39139;53.144;6.244;2023-04-15T00:23:24;5.50;99.90
51733;DHT22;39139;53.144;6.244;2023-04-15T00:25:51;5.50;99.90
51733;DHT22;39139;53.144;6.244;2023-04-15T00:28:17;5.30;99.90
51733;DHT22;39139;53.144;6.244;2023-04-15T00:30:43;5.40;99.90
51733;DHT22;39139;53.144;6.244;2023-04-15T00:33:09;5.40;99.90
51733;DHT22;39139;53.144;6.244;2023-04-15T00:35:35;5.30;99.90
51733;DHT22;39139;53.144;6.244;2023-04-15T00:38:02;5.30;99.90
51733;DHT22;39139;53.144;6.244;2023-04-15T00:40:29;5.20;99.90
51733;DHT22;39139;53.144;6.244;2023-04-15T00:42:55;5.20;99.90
51733;DHT22;39139;53.144;6.244;2023-04-15T00:45:21;5.20;99.90
51733;DHT22;39139;53.144;6.244;2023-04-15T00:47:47;5.20;99.90
51733;DHT22;39139;53.144;6.244;2023-04-15T00:50:12;5.20;99.90
51733;DHT22;39139;53.144;6.244;2023-04-15T00:52:39;5.10;99.90
51733;DHT22;39139;53.144;6.244;2023-04-15T00:55:05;4.60;99.90
51733;DHT22;39139;53.144;6.244;2023-04-15T00:57:32;5.10;99.90
51733;DHT22;39139;53.144;6.244;2023-04-15T00:59:58;5.00;99.90
51733;DHT22;39139;53.144;6.244;2023-04-15T01:02:24;5.00;99.90
51733;DHT22;39139;53.144;6.244;2023-04-15T01:04:50;5.00;99.90
51733;DHT22;39139;53.144;6.244;2023-04-15T01:07:16;5.00;99.90
51733;DHT22;39139;53.144;6.244;2023-04-15T01:09:42;5.00;99.90
51733;DHT22;39139;53.144;6.244;2023-04-15T01:12:11;4.90;99.90
51733;DHT22;39139;53.144;6.244;2023-04-15T01:14:38;4.90;99.90
51733;DHT22;39139;53.144;6.244;2023-04-15T01:17:04;4.90;99.90
51733;DHT22;39139;53.144;6.244;2023-04-15T01:19:30;4.90;99.90
51733;DHT22;39139;53.144;6.244;2023-04-15T01:21:56;4.90;99.90
51733;DHT22;39139;53.144;6.244;2023-04-15T01:24:22;4.80;99.90
51733;DHT22;39139;53.144;6.244;2023-04-15T01:26:49;5.60;99.90
51733;DHT22;39139;53.144;6.244;2023-04-15T01:29:15;4.90;99.90
51733;DHT22;39139;53.144;6.244;2023-04-15T01:31:47;4.80;99.90
51733;DHT22;39139;53.144;6.244;2023-04-15T01:34:14;4.80;99.90
51733;DHT22;39139;53.144;6.244;2023-04-15T01:36:39;4.80;99.90
51733;DHT22;39139;53.144;6.244;2023-04-15T01:39:05;4.80;99.90
51733;DHT22;39139;53.144;6.244;2023-04-15T01:41:31;4.80;99.90
51733;DHT22;39139;53.144;6.244;2023-04-15T01:43:57;4.10;99.90
51733;DHT22;39139;53.144;6.244;2023-04-15T01:46:22;4.70;99.90
51733;DHT22;39139;53.144;6.244;2023-04-15T01:48:48;4.70;99.90
51733;DHT22;39139;53.144;6.244;2023-04-15T01:51:14;4.60;99.90
51733;DHT22;39139;53.144;6.244;2023-04-15T01:53:39;4.60;99.90
51733;DHT22;39139;53.144;6.244;2023-04-15T01:56:05;4.50;99.90
51733;DHT22;39139;53.144;6.244;2023-04-15T01:58:31;4.50;99.90
51733;DHT22;39139;53.144;6.244;2023-04-15T02:00:57;4.40;99.90
51733;DHT22;39139;53.144;6.244;2023-04-15T02:03:24;4.40;99.90
51733;DHT22;39139;53.144;6.244;2023-04-15T02:05:49;4.50;99.90
51733;DHT22;39139;53.144;6.244;2023-04-15T02:08:15;4.40;99.90
51733;DHT22;39139;53.144;6.244;2023-04-15T02:10:41;4.30;99.90
51733;DHT22;39139;53.144;6.244;2023-04-15T02:13:07;4.30;99.90
51733;DHT22;39139;53.144;6.244;2023-04-15T02:15:33;4.30;99.90
51733;DHT22;39139;53.144;6.244;2023-04-15T02:17:59;4.30;99.90
51733;DHT22;39139;53.144;6.244;2023-04-15T02:20:26;4.20;99.90
51733;DHT22;39139;53.144;6.244;2023-04-15T02:22:52;4.20;99.90
51733;DHT22;39139;53.144;6.244;2023-04-15T02:25:17;4.10;99.90
51733;DHT22;39139;53.144;6.244;2023-04-15T02:27:43;4.10;99.90
51733;DHT22;39139;53.144;6.244;2023-04-15T02:30:09;3.90;99.90
51733;DHT22;39139;53.144;6.244;2023-04-15T02:32:35;4.20;99.90
51733;DHT22;39139;53.144;6.244;2023-04-15T02:35:06;4.00;99.90
51733;DHT22;39139;53.144;6.244;2023-04-15T02:37:33;4.10;99.90
51733;DHT22;39139;53.144;6.244;2023-04-15T02:40:01;4.00;99.90
51733;DHT22;39139;53.144;6.244;2023-04-15T02:42:27;4.10;99.90
51733;DHT22;39139;53.144;6.244;2023-04-15T02:44:55;4.10;99.90
51733;DHT22;39139;53.144;6.244;2023-04-15T02:47:20;4.10;99.90
51733;DHT22;39139;53.144;6.244;2023-04-15T02:49:46;4.10;99.90
51733;DHT22;39139;53.144;6.244;2023-04-15T02:52:12;4.00;99.90
51733;DHT22;39139;53.144;6.244;2023-04-15T02:54:38;4.10;99.90
51733;DHT22;39139;53.144;6.244;2023-04-15T02:57:04;4.10;99.90
51733;DHT22;39139;53.144;6.244;2023-04-15T02:59:31;4.10;99.90
51733;DHT22;39139;53.144;6.244;2023-04-15T03:01:56;4.10;99.90
51733;DHT22;39139;53.144;6.244;2023-04-15T03:04:25;4.10;99.90
51733;DHT22;39139;53.144;6.244;2023-04-15T03:06:51;4.10;99.90
51733;DHT22;39139;53.144;6.244;2023-04-15T03:09:16;4.10;99.90
51733;DHT22;39139;53.144;6.244;2023-04-15T03:11:42;4.00;99.90
51733;DHT22;39139;53.144;6.244;2023-04-15T03:14:08;4.00;99.90
51733;DHT22;39139;53.144;6.244;2023-04-15T03:16:33;4.00;99.90
51733;DHT22;39139;53.144;6.244;2023-04-15T03:18:59;4.00;99.90
51733;DHT22;39139;53.144;6.244;2023-04-15T03:21:25;4.20;99.90
51733;DHT22;39139;53.144;6.244;2023-04-15T03:23:51;3.90;99.90
51733;DHT22;39139;53.144;6.244;2023-04-15T03:26:27;4.20;99.90
51733;DHT22;39139;53.144;6.244;2023-04-15T03:28:54;3.90;99.90
51733;DHT22;39139;53.144;6.244;2023-04-15T03:31:19;3.80;99.90
51733;DHT22;39139;53.144;6.244;2023-04-15T03:33:45;3.90;99.90
51733;DHT22;39139;53.144;6.244;2023-04-15T03:36:11;3.90;99.90
51733;DHT22;39139;53.144;6.244;2023-04-15T03:38:36;3.70;99.90
51733;DHT22;39139;53.144;6.244;2023-04-15T03:41:02;3.90;99.90
51733;DHT22;39139;53.144;6.244;2023-04-15T03:43:28;3.90;99.90
51733;DHT22;39139;53.144;6.244;2023-04-15T03:45:53;3.90;99.90
51733;DHT22;39139;53.144;6.244;2023-04-15T03:48:19;3.90;99.90
51733;DHT22;39139;53.144;6.244;2023-04-15T03:50:45;3.90;99.90
51733;DHT22;39139;53.144;6.244;2023-04-15T03:53:10;3.80;99.90
51733;DHT22;39139;53.144;6.244;2023-04-15T03:55:36;3.80;99.90
51733;DHT22;39139;53.144;6.244;2023-04-15T03:58:02;3.50;99.90
51733;DHT22;39139;53.144;6.244;2023-04-15T04:00:28;3.80;99.90
51733;DHT22;39139;53.144;6.244;2023-04-15T04:02:53;3.80;99.90
51733;DHT22;39139;53.144;6.244;2023-04-15T04:05:19;3.70;99.90
51733;DHT22;39139;53.144;6.244;2023-04-15T04:07:45;3.70;99.90
51733;DHT22;39139;53.144;6.244;2023-04-15T04:10:10;3.70;99.90
51733;DHT22;39139;53.144;6.244;2023-04-15T04:12:36;3.40;99.90
51733;DHT22;39139;53.144;6.244;2023-04-15T04:15:02;3.40;99.90
51733;DHT22;39139;53.144;6.244;2023-04-15T04:17:27;3.70;99.90
51733;DHT22;39139;53.144;6.244;2023-04-15T04:19:53;3.80;99.90
51733;DHT22;39139;53.144;6.244;2023-04-15T04:22:22;3.70;99.90
51733;DHT22;39139;53.144;6.244;2023-04-15T04:24:48;3.80;99.90
51733;DHT22;39139;53.144;6.244;2023-04-15T04:27:14;3.50;99.90
51733;DHT22;39139;53.144;6.244;2023-04-15T04:29:40;3.50;99.90
51733;DHT22;39139;53.144;6.244;2023-04-15T04:32:06;3.90;99.90
51733;DHT22;39139;53.144;6.244;2023-04-15T04:34:31;4.10;99.90
51733;DHT22;39139;53.144;6.244;2023-04-15T04:36:57;3.60;99.90
51733;DHT22;39139;53.144;6.244;2023-04-15T04:39:22;3.80;99.90
51733;DHT22;39139;53.144;6.244;2023-04-15T04:41:48;3.50;99.90
51733;DHT22;39139;53.144;6.244;2023-04-15T04:44:16;3.60;99.90
51733;DHT22;39139;53.144;6.244;2023-04-15T04:46:42;3.60;99.90
51733;DHT22;39139;53.144;6.244;2023-04-15T04:49:07;3.60;99.90
51733;DHT22;39139;53.144;6.244;2023-04-15T04:51:33;4.00;99.90
51733;DHT22;39139;53.144;6.244;2023-04-15T04:53:59;3.70;99.90
51733;DHT22;39139;53.144;6.244;2023-04-15T04:56:24;3.50;99.90
51733;DHT22;39139;53.144;6.244;2023-04-15T04:58:50;3.50;99.90
51733;DHT22;39139;53.144;6.244;2023-04-15T05:01:16;3.50;99.90
51733;DHT22;39139;53.144;6.244;2023-04-15T05:03:42;3.50;99.90
51733;DHT22;39139;53.144;6.244;2023-04-15T05:06:07;3.50;99.90
51733;DHT22;39139;53.144;6.244;2023-04-15T05:08:33;3.50;99.90
51733;DHT22;39139;53.144;6.244;2023-04-15T05:10:59;3.50;99.90
51733;DHT22;39139;53.144;6.244;2023-04-15T05:13:25;3.40;99.90
51733;DHT22;39139;53.144;6.244;2023-04-15T05:15:50;3.50;99.90
51733;DHT22;39139;53.144;6.244;2023-04-15T05:18:16;3.50;99.90
51733;DHT22;39139;53.144;6.244;2023-04-15T05:20:42;4.10;99.90
51733;DHT22;39139;53.144;6.244;2023-04-15T05:23:07;3.50;99.90
51733;DHT22;39139;53.144;6.244;2023-04-15T05:25:33;3.70;99.90
51733;DHT22;39139;53.144;6.244;2023-04-15T05:27:59;3.60;99.90
51733;DHT22;39139;53.144;6.244;2023-04-15T05:30:25;3.60;99.90
51733;DHT22;39139;53.144;6.244;2023-04-15T05:32:51;3.50;99.90
51733;DHT22;39139;53.144;6.244;2023-04-15T05:35:16;3.80;99.90
51733;DHT22;39139;53.144;6.244;2023-04-15T05:37:42;3.80;99.90
51733;DHT22;39139;53.144;6.244;2023-04-15T05:40:08;3.80;99.90
51733;DHT22;39139;53.144;6.244;2023-04-15T05:42:35;4.00;99.90
51733;DHT22;39139;53.144;6.244;2023-04-15T05:45:01;4.10;99.90
51733;DHT22;39139;53.144;6.244;2023-04-15T05:47:30;4.00;99.90
51733;DHT22;39139;53.144;6.244;2023-04-15T05:49:56;4.40;99.90
51733;DHT22;39139;53.144;6.244;2023-04-15T05:52:23;4.40;99.90
51733;DHT22;39139;53.144;6.244;2023-04-15T05:54:49;4.50;99.90
51733;DHT22;39139;53.144;6.244;2023-04-15T05:57:15;4.50;99.90
51733;DHT22;39139;53.144;6.244;2023-04-15T05:59:40;4.60;99.90
51733;DHT22;39139;53.144;6.244;2023-04-15T06:02:07;4.70;99.90
51733;DHT22;39139;53.144;6.244;2023-04-15T06:04:34;4.70;99.90
51733;DHT22;39139;53.144;6.244;2023-04-15T06:06:59;4.90;99.90
51733;DHT22;39139;53.144;6.244;2023-04-15T06:09:25;5.00;99.90
51733;DHT22;39139;53.144;6.244;2023-04-15T06:11:51;5.20;99.90
51733;DHT22;39139;53.144;6.244;2023-04-15T06:14:17;5.30;99.90
51733;DHT22;39139;53.144;6.244;2023-04-15T06:16:43;5.50;99.90
51733;DHT22;39139;53.144;6.244;2023-04-15T06:19:08;5.80;99.90
51733;DHT22;39139;53.144;6.244;2023-04-15T06:21:34;5.80;99.90
51733;DHT22;39139;53.144;6.244;2023-04-15T06:24:00;5.90;99.90
51733;DHT22;39139;53.144;6.244;2023-04-15T06:26:26;6.10;99.90
51733;DHT22;39139;53.144;6.244;2023-04-15T06:28:52;6.10;99.90
51733;DHT22;39139;53.144;6.244;2023-04-15T06:31:18;6.10;99.90
51733;DHT22;39139;53.144;6.244;2023-04-15T06:33:44;6.20;99.90
51733;DHT22;39139;53.144;6.244;2023-04-15T06:36:09;6.30;99.90
51733;DHT22;39139;53.144;6.244;2023-04-15T06:38:35;6.40;99.90
51733;DHT22;39139;53.144;6.244;2023-04-15T06:41:02;6.40;99.90
51733;DHT22;39139;53.144;6.244;2023-04-15T06:43:27;6.60;99.90
51733;DHT22;39139;53.144;6.244;2023-04-15T06:45:54;6.70;99.90
51733;DHT22;39139;53.144;6.244;2023-04-15T06:48:19;6.80;99.90
51733;DHT22;39139;53.144;6.244;2023-04-15T06:50:45;7.00;99.90
51733;DHT22;39139;53.144;6.244;2023-04-15T06:53:10;7.10;99.90
51733;DHT22;39139;53.144;6.244;2023-04-15T06:55:36;7.30;99.90
51733;DHT22;39139;53.144;6.244;2023-04-15T06:58:02;7.50;99.90
51733;DHT22;39139;53.144;6.244;2023-04-15T07:00:28;7.70;99.90
51733;DHT22;39139;53.144;6.244;2023-04-15T07:02:53;8.00;99.90
51733;DHT22;39139;53.144;6.244;2023-04-15T07:05:20;8.20;99.90
51733;DHT22;39139;53.144;6.244;2023-04-15T07:07:45;8.60;99.90
51733;DHT22;39139;53.144;6.244;2023-04-15T07:10:11;8.50;99.90
51733;DHT22;39139;53.144;6.244;2023-04-15T07:12:37;8.60;99.90
51733;DHT22;39139;53.144;6.244;2023-04-15T07:15:03;8.70;99.90
51733;DHT22;39139;53.144;6.244;2023-04-15T07:17:29;8.80;99.90
51733;DHT22;39139;53.144;6.244;2023-04-15T07:19:54;8.90;99.90
51733;DHT22;39139;53.144;6.244;2023-04-15T07:22:20;9.00;99.90
51733;DHT22;39139;53.144;6.244;2023-04-15T07:24:46;8.90;99.90
51733;DHT22;39139;53.144;6.244;2023-04-15T07:27:11;9.00;99.90
51733;DHT22;39139;53.144;6.244;2023-04-15T07:29:37;10.20;99.90
51733;DHT22;39139;53.144;6.244;2023-04-15T07:32:02;9.10;99.90
51733;DHT22;39139;53.144;6.244;2023-04-15T07:34:28;9.20;99.90
51733;DHT22;39139;53.144;6.244;2023-04-15T07:36:54;9.20;99.90
51733;DHT22;39139;53.144;6.244;2023-04-15T07:39:19;9.40;99.90
51733;DHT22;39139;53.144;6.244;2023-04-15T07:41:45;9.50;99.90
51733;DHT22;39139;53.144;6.244;2023-04-15T07:44:11;9.60;99.90
51733;DHT22;39139;53.144;6.244;2023-04-15T07:46:37;9.70;99.90
51733;DHT22;39139;53.144;6.244;2023-04-15T07:49:03;9.80;99.90
51733;DHT22;39139;53.144;6.244;2023-04-15T07:51:29;10.00;99.90
51733;DHT22;39139;53.144;6.244;2023-04-15T07:53:55;10.10;99.90
51733;DHT22;39139;53.144;6.244;2023-04-15T07:56:20;10.20;99.90
51733;DHT22;39139;53.144;6.244;2023-04-15T07:58:46;10.30;99.90
51733;DHT22;39139;53.144;6.244;2023-04-15T08:01:12;10.40;99.90
51733;DHT22;39139;53.144;6.244;2023-04-15T08:03:38;10.50;99.90
51733;DHT22;39139;53.144;6.244;2023-04-15T08:06:04;10.50;99.90
51733;DHT22;39139;53.144;6.244;2023-04-15T08:08:29;10.50;99.90
51733;DHT22;39139;53.144;6.244;2023-04-15T08:10:56;10.40;99.90
51733;DHT22;39139;53.144;6.244;2023-04-15T08:13:22;10.50;99.90
51733;DHT22;39139;53.144;6.244;2023-04-15T08:16:18;10.50;99.90
51733;DHT22;39139;53.144;6.244;2023-04-15T08:18:45;10.50;99.90
51733;DHT22;39139;53.144;6.244;2023-04-15T08:21:11;10.60;99.90
51733;DHT22;39139;53.144;6.244;2023-04-15T08:23:37;10.40;99.90
51733;DHT22;39139;53.144;6.244;2023-04-15T08:26:04;10.40;99.90
51733;DHT22;39139;53.144;6.244;2023-04-15T08:28:29;10.50;99.90
51733;DHT22;39139;53.144;6.244;2023-04-15T08:30:56;10.50;99.90
51733;DHT22;39139;53.144;6.244;2023-04-15T08:33:22;10.30;99.90
51733;DHT22;39139;53.144;6.244;2023-04-15T08:35:48;10.30;99.90
51733;DHT22;39139;53.144;6.244;2023-04-15T08:38:14;10.20;99.90
51733;DHT22;39139;53.144;6.244;2023-04-15T08:40:44;10.40;99.90
51733;DHT22;39139;53.144;6.244;2023-04-15T08:43:14;10.10;99.90
51733;DHT22;39139;53.144;6.244;2023-04-15T08:45:43;9.90;99.90
51733;DHT22;39139;53.144;6.244;2023-04-15T08:48:14;9.80;99.90
51733;DHT22;39139;53.144;6.244;2023-04-15T08:50:41;9.60;99.90
51733;DHT22;39139;53.144;6.244;2023-04-15T08:53:08;10.00;99.90
51733;DHT22;39139;53.144;6.244;2023-04-15T08:55:35;9.70;99.90
51733;DHT22;39139;53.144;6.244;2023-04-15T08:58:03;9.70;99.90
51733;DHT22;39139;53.144;6.244;2023-04-15T09:00:30;9.60;99.90
51733;DHT22;39139;53.144;6.244;2023-04-15T09:02:58;9.70;99.90
51733;DHT22;39139;53.144;6.244;2023-04-15T09:05:23;9.60;99.90
51733;DHT22;39139;53.144;6.244;2023-04-15T09:07:50;9.60;99.90
51733;DHT22;39139;53.144;6.244;2023-04-15T09:10:16;9.60;99.90
51733;DHT22;39139;53.144;6.244;2023-04-15T09:12:41;9.80;99.90
51733;DHT22;39139;53.144;6.244;2023-04-15T09:15:12;9.60;99.90
51733;DHT22;39139;53.144;6.244;2023-04-15T09:17:42;9.70;99.90
51733;DHT22;39139;53.144;6.244;2023-04-15T09:20:11;9.70;99.90
51733;DHT22;39139;53.144;6.244;2023-04-15T09:22:38;9.60;99.90
51733;DHT22;39139;53.144;6.244;2023-04-15T09:27:53;9.60;99.90
51733;DHT22;39139;53.144;6.244;2023-04-15T09:30:19;9.70;99.90
51733;DHT22;39139;53.144;6.244;2023-04-15T09:35:17;9.50;99.90
51733;DHT22;39139;53.144;6.244;2023-04-15T09:37:43;9.90;99.90
51733;DHT22;39139;53.144;6.244;2023-04-15T09:40:09;10.10;99.90
51733;DHT22;39139;53.144;6.244;2023-04-15T09:42:35;10.60;99.90
51733;DHT22;39139;53.144;6.244;2023-04-15T09:45:11;11.10;99.90
51733;DHT22;39139;53.144;6.244;2023-04-15T09:47:37;11.40;99.90
51733;DHT22;39139;53.144;6.244;2023-04-15T09:50:03;11.50;99.90
51733;DHT22;39139;53.144;6.244;2023-04-15T09:52:29;11.90;99.90
51733;DHT22;39139;53.144;6.244;2023-04-15T09:54:57;12.00;99.90
51733;DHT22;39139;53.144;6.244;2023-04-15T09:57:23;12.20;99.90
51733;DHT22;39139;53.144;6.244;2023-04-15T09:59:49;11.90;99.90
51733;DHT22;39139;53.144;6.244;2023-04-15T10:02:18;12.00;99.90
51733;DHT22;39139;53.144;6.244;2023-04-15T10:04:47;12.10;99.90
51733;DHT22;39139;53.144;6.244;2023-04-15T10:07:14;12.20;99.90
51733;DHT22;39139;53.144;6.244;2023-04-15T10:09:40;12.20;99.90
51733;DHT22;39139;53.144;6.244;2023-04-15T10:12:07;12.10;99.90
51733;DHT22;39139;53.144;6.244;2023-04-15T10:14:34;12.00;99.90
51733;DHT22;39139;53.144;6.244;2023-04-15T10:17:04;11.90;99.90
51733;DHT22;39139;53.144;6.244;2023-04-15T10:19:35;11.60;99.90
51733;DHT22;39139;53.144;6.244;2023-04-15T10:22:01;11.60;99.90
51733;DHT22;39139;53.144;6.244;2023-04-15T10:24:32;11.60;99.90
51733;DHT22;39139;53.144;6.244;2023-04-15T10:26:59;11.60;99.90
51733;DHT22;39139;53.144;6.244;2023-04-15T10:29:25;11.40;99.90
51733;DHT22;39139;53.144;6.244;2023-04-15T10:31:54;11.30;99.90
51733;DHT22;39139;53.144;6.244;2023-04-15T10:34:21;11.20;99.90
51733;DHT22;39139;53.144;6.244;2023-04-15T10:36:48;11.00;99.90
51733;DHT22;39139;53.144;6.244;2023-04-15T10:42:16;10.80;99.90
51733;DHT22;39139;53.144;6.244;2023-04-15T10:44:51;10.70;99.90
51733;DHT22;39139;53.144;6.244;2023-04-15T10:47:20;10.70;99.90
51733;DHT22;39139;53.144;6.244;2023-04-15T10:49:47;10.80;99.90
51733;DHT22;39139;53.144;6.244;2023-04-15T10:52:16;10.80;99.90
51733;DHT22;39139;53.144;6.244;2023-04-15T10:54:42;10.70;99.90
51733;DHT22;39139;53.144;6.244;2023-04-15T10:57:13;10.60;99.90
51733;DHT22;39139;53.144;6.244;2023-04-15T10:59:59;10.50;99.90
51733;DHT22;39139;53.144;6.244;2023-04-15T11:05:15;10.30;99.90
51733;DHT22;39139;53.144;6.244;2023-04-15T11:12:52;10.50;99.90
51733;DHT22;39139;53.144;6.244;2023-04-15T11:17:57;10.70;99.90
51733;DHT22;39139;53.144;6.244;2023-04-15T11:20:23;10.60;99.90
51733;DHT22;39139;53.144;6.244;2023-04-15T11:22:51;10.50;99.90
51733;DHT22;39139;53.144;6.244;2023-04-15T11:25:23;10.60;99.90
51733;DHT22;39139;53.144;6.244;2023-04-15T11:27:49;10.70;99.90
51733;DHT22;39139;53.144;6.244;2023-04-15T11:30:22;10.50;99.90
51733;DHT22;39139;53.144;6.244;2023-04-15T11:32:49;10.40;99.90
51733;DHT22;39139;53.144;6.244;2023-04-15T11:35:16;10.50;99.90
51733;DHT22;39139;53.144;6.244;2023-04-15T11:37:47;10.40;99.90
51733;DHT22;39139;53.144;6.244;2023-04-15T11:40:26;10.40;99.90
51733;DHT22;39139;53.144;6.244;2023-04-15T11:43:14;10.30;99.90
51733;DHT22;39139;53.144;6.244;2023-04-15T11:45:57;10.30;99.90
51733;DHT22;39139;53.144;6.244;2023-04-15T11:48:27;10.20;99.90
51733;DHT22;39139;53.144;6.244;2023-04-15T11:50:55;10.10;99.90
51733;DHT22;39139;53.144;6.244;2023-04-15T11:53:21;10.10;99.90
51733;DHT22;39139;53.144;6.244;2023-04-15T11:55:50;10.10;99.90
51733;DHT22;39139;53.144;6.244;2023-04-15T11:58:20;10.20;99.90
51733;DHT22;39139;53.144;6.244;2023-04-15T12:03:26;10.30;99.90
51733;DHT22;39139;53.144;6.244;2023-04-15T12:11:56;10.40;99.90
51733;DHT22;39139;53.144;6.244;2023-04-15T12:14:32;10.30;99.90
51733;DHT22;39139;53.144;6.244;2023-04-15T12:17:00;10.30;99.90
51733;DHT22;39139;53.144;6.244;2023-04-15T12:19:34;10.30;99.90
51733;DHT22;39139;53.144;6.244;2023-04-15T12:22:11;10.20;99.90
51733;DHT22;39139;53.144;6.244;2023-04-15T12:24:37;10.30;99.90
51733;DHT22;39139;53.144;6.244;2023-04-15T12:27:08;10.30;99.90
51733;DHT22;39139;53.144;6.244;2023-04-15T12:29:36;10.40;99.90
51733;DHT22;39139;53.144;6.244;2023-04-15T12:32:11;10.60;99.90
51733;DHT22;39139;53.144;6.244;2023-04-15T12:34:42;10.30;99.90
51733;DHT22;39139;53.144;6.244;2023-04-15T12:37:09;10.50;99.90
51733;DHT22;39139;53.144;6.244;2023-04-15T12:39:37;10.30;99.90
51733;DHT22;39139;53.144;6.244;2023-04-15T12:42:04;11.30;99.90
51733;DHT22;39139;53.144;6.244;2023-04-15T12:44:31;9.90;99.90
51733;DHT22;39139;53.144;6.244;2023-04-15T12:46:57;10.20;99.90
51733;DHT22;39139;53.144;6.244;2023-04-15T12:49:24;10.10;99.90
51733;DHT22;39139;53.144;6.244;2023-04-15T12:51:53;10.00;99.90
51733;DHT22;39139;53.144;6.244;2023-04-15T12:54:19;9.90;99.90
51733;DHT22;39139;53.144;6.244;2023-04-15T12:56:47;9.90;99.90
51733;DHT22;39139;53.144;6.244;2023-04-15T12:59:14;10.00;99.90
51733;DHT22;39139;53.144;6.244;2023-04-15T13:01:40;10.00;99.90
51733;DHT22;39139;53.144;6.244;2023-04-15T13:04:06;10.00;99.90
51733;DHT22;39139;53.144;6.244;2023-04-15T13:06:32;9.90;99.90
51733;DHT22;39139;53.144;6.244;2023-04-15T13:09:01;10.00;99.90
51733;DHT22;39139;53.144;6.244;2023-04-15T13:11:28;10.10;99.90
51733;DHT22;39139;53.144;6.244;2023-04-15T13:14:05;10.20;99.90
51733;DHT22;39139;53.144;6.244;2023-04-15T13:16:31;10.30;99.90
51733;DHT22;39139;53.144;6.244;2023-04-15T13:19:01;10.30;99.90
51733;DHT22;39139;53.144;6.244;2023-04-15T13:21:28;10.40;99.90
51733;DHT22;39139;53.144;6.244;2023-04-15T13:23:54;10.40;99.90
51733;DHT22;39139;53.144;6.244;2023-04-15T13:26:20;10.30;99.90
51733;DHT22;39139;53.144;6.244;2023-04-15T13:28:46;10.40;99.90
51733;DHT22;39139;53.144;6.244;2023-04-15T13:31:12;10.50;99.90
51733;DHT22;39139;53.144;6.244;2023-04-15T13:33:37;10.50;99.90
51733;DHT22;39139;53.144;6.244;2023-04-15T13:36:03;10.40;99.90
51733;DHT22;39139;53.144;6.244;2023-04-15T13:38:29;10.50;99.90
51733;DHT22;39139;53.144;6.244;2023-04-15T13:40:54;10.40;99.90
51733;DHT22;39139;53.144;6.244;2023-04-15T13:43:20;10.40;99.90
51733;DHT22;39139;53.144;6.244;2023-04-15T13:45:46;10.30;99.90
51733;DHT22;39139;53.144;6.244;2023-04-15T13:48:12;10.20;99.90
51733;DHT22;39139;53.144;6.244;2023-04-15T13:50:38;10.30;99.90
51733;DHT22;39139;53.144;6.244;2023-04-15T13:53:04;10.20;99.90
51733;DHT22;39139;53.144;6.244;2023-04-15T13:55:29;10.20;99.90
51733;DHT22;39139;53.144;6.244;2023-04-15T13:57:56;10.20;99.90
51733;DHT22;39139;53.144;6.244;2023-04-15T14:00:22;10.10;99.90
51733;DHT22;39139;53.144;6.244;2023-04-15T14:02:47;10.10;99.90
51733;DHT22;39139;53.144;6.244;2023-04-15T14:05:13;10.20;99.90
51733;DHT22;39139;53.144;6.244;2023-04-15T14:07:39;10.00;99.90
51733;DHT22;39139;53.144;6.244;2023-04-15T14:10:06;10.00;99.90
51733;DHT22;39139;53.144;6.244;2023-04-15T14:12:32;9.90;99.90
51733;DHT22;39139;53.144;6.244;2023-04-15T14:14:58;10.00;99.90
51733;DHT22;39139;53.144;6.244;2023-04-15T14:17:23;9.90;99.90
51733;DHT22;39139;53.144;6.244;2023-04-15T14:19:49;9.90;99.90
51733;DHT22;39139;53.144;6.244;2023-04-15T14:22:14;9.80;99.90
51733;DHT22;39139;53.144;6.244;2023-04-15T14:24:40;9.80;99.90
51733;DHT22;39139;53.144;6.244;2023-04-15T14:27:06;9.70;99.90
51733;DHT22;39139;53.144;6.244;2023-04-15T14:29:33;9.70;99.90
51733;DHT22;39139;53.144;6.244;2023-04-15T14:31:58;9.70;99.90
51733;DHT22;39139;53.144;6.244;2023-04-15T14:34:24;9.70;99.90
51733;DHT22;39139;53.144;6.244;2023-04-15T14:36:51;9.80;99.90
51733;DHT22;39139;53.144;6.244;2023-04-15T14:39:18;9.60;99.90
51733;DHT22;39139;53.144;6.244;2023-04-15T14:41:44;9.70;99.90
51733;DHT22;39139;53.144;6.244;2023-04-15T14:44:10;9.60;99.90
51733;DHT22;39139;53.144;6.244;2023-04-15T14:46:37;9.60;99.90
51733;DHT22;39139;53.144;6.244;2023-04-15T14:49:03;9.60;99.90
51733;DHT22;39139;53.144;6.244;2023-04-15T14:51:28;9.50;99.90
51733;DHT22;39139;53.144;6.244;2023-04-15T14:53:54;9.50;99.90
51733;DHT22;39139;53.144;6.244;2023-04-15T14:56:19;9.40;99.90
51733;DHT22;39139;53.144;6.244;2023-04-15T14:58:45;9.50;99.90
51733;DHT22;39139;53.144;6.244;2023-04-15T15:01:11;9.60;99.90
51733;DHT22;39139;53.144;6.244;2023-04-15T15:03:37;9.40;99.90
51733;DHT22;39139;53.144;6.244;2023-04-15T15:06:03;9.40;99.90
51733;DHT22;39139;53.144;6.244;2023-04-15T15:08:29;9.30;99.90
51733;DHT22;39139;53.144;6.244;2023-04-15T15:10:55;9.30;99.90
51733;DHT22;39139;53.144;6.244;2023-04-15T15:13:21;9.30;99.90
51733;DHT22;39139;53.144;6.244;2023-04-15T15:15:47;9.30;99.90
51733;DHT22;39139;53.144;6.244;2023-04-15T15:18:14;9.20;99.90
51733;DHT22;39139;53.144;6.244;2023-04-15T15:20:41;9.10;99.90
51733;DHT22;39139;53.144;6.244;2023-04-15T15:23:07;9.20;99.90
51733;DHT22;39139;53.144;6.244;2023-04-15T15:25:32;9.20;99.90
51733;DHT22;39139;53.144;6.244;2023-04-15T15:27:58;9.10;99.90
51733;DHT22;39139;53.144;6.244;2023-04-15T15:30:24;9.10;99.90
51733;DHT22;39139;53.144;6.244;2023-04-15T15:32:50;9.10;99.90
51733;DHT22;39139;53.144;6.244;2023-04-15T15:35:15;9.00;99.90
51733;DHT22;39139;53.144;6.244;2023-04-15T15:37:41;9.10;99.90
51733;DHT22;39139;53.144;6.244;2023-04-15T15:40:08;9.00;99.90
51733;DHT22;39139;53.144;6.244;2023-04-15T15:42:33;8.90;99.90
51733;DHT22;39139;53.144;6.244;2023-04-15T15:44:59;8.90;99.90
51733;DHT22;39139;53.144;6.244;2023-04-15T15:47:25;8.60;99.90
51733;DHT22;39139;53.144;6.244;2023-04-15T15:49:52;8.80;99.90
51733;DHT22;39139;53.144;6.244;2023-04-15T15:52:18;8.70;99.90
51733;DHT22;39139;53.144;6.244;2023-04-15T15:54:43;8.80;99.90
51733;DHT22;39139;53.144;6.244;2023-04-15T15:57:09;8.70;99.90
51733;DHT22;39139;53.144;6.244;2023-04-15T15:59:35;8.70;99.90
51733;DHT22;39139;53.144;6.244;2023-04-15T16:02:07;9.00;99.90
51733;DHT22;39139;53.144;6.244;2023-04-15T16:04:34;8.70;99.90
51733;DHT22;39139;53.144;6.244;2023-04-15T16:07:00;9.00;99.90